Time;durP1;ratioP1;P1;durP2;ratioP2;P2;SDS_P1;SDS_P2;PMS_P1;PMS_P2;Temp;Humidity;BMP_temperature;BMP_pressure;BME280_temperature;BME280_humidity;BME280_pressure;Samples;Min_cycle;Max_cycle;Signal;HPM_P1;HPM_P2
2021/06/24 00:01:13;;;;;;;14.77;6.93;;;15.50;99.90;;;;;;5074535;28;20478;-60
2021/06/24 00:03:38;;;;;;;13.18;7.18;;;15.50;99.90;;;;;;5069910;28;20045;-60
2021/06/24 00:06:06;;;;;;;11.57;7.55;;;15.50;99.90;;;;;;5056483;28;20091;-61
2021/06/24 00:08:32;;;;;;;10.63;7.70;;;15.40;99.90;;;;;;5074298;28;20473;-60
2021/06/24 00:11:00;;;;;;;13.48;8.43;;;15.40;99.90;;;;;;5074377;28;20032;-60
2021/06/24 00:13:26;;;;;;;12.70;8.35;;;15.30;99.90;;;;;;5074594;28;20032;-60
2021/06/24 00:15:52;;;;;;;13.57;8.27;;;15.30;99.90;;;;;;5074196;28;20050;-60
2021/06/24 00:18:19;;;;;;;15.30;8.95;;;15.30;99.90;;;;;;5074133;28;20028;-60
2021/06/24 00:20:45;;;;;;;14.45;8.38;;;15.30;99.90;;;;;;5056296;28;20025;-60
2021/06/24 00:23:11;;;;;;;11.48;7.80;;;15.30;99.90;;;;;;5074375;28;20377;-60
2021/06/24 00:25:36;;;;;;;11.90;8.65;;;15.20;99.90;;;;;;5074585;28;20020;-60
2021/06/24 00:28:03;;;;;;;12.43;9.55;;;15.30;99.90;;;;;;5074420;28;20478;-60
2021/06/24 00:30:29;;;;;;;12.38;9.15;;;15.30;99.90;;;;;;5074035;28;20039;-60
2021/06/24 00:32:55;;;;;;;11.63;9.13;;;15.30;99.90;;;;;;5073899;28;20020;-60
2021/06/24 00:35:20;;;;;;;13.43;8.77;;;15.30;99.90;;;;;;5074158;28;20052;-60
2021/06/24 00:37:47;;;;;;;14.82;9.18;;;15.30;99.90;;;;;;5073730;28;20682;-60
2021/06/24 00:40:14;;;;;;;17.70;9.45;;;15.30;99.90;;;;;;5055844;28;20025;-60
2021/06/24 00:42:41;;;;;;;13.32;9.00;;;15.30;99.90;;;;;;5073966;28;20021;-60
2021/06/24 00:45:08;;;;;;;14.63;9.07;;;15.40;99.90;;;;;;5073884;28;20027;-60
2021/06/24 00:47:34;;;;;;;16.33;9.90;;;15.40;99.90;;;;;;5073649;28;20264;-60
2021/06/24 00:50:00;;;;;;;15.65;9.25;;;15.40;99.90;;;;;;5073786;28;20043;-61
2021/06/24 00:52:26;;;;;;;14.32;9.43;;;15.30;99.90;;;;;;5073981;28;20108;-60
2021/06/24 00:54:52;;;;;;;17.30;10.27;;;15.30;99.90;;;;;;5073613;28;20103;-59
2021/06/24 00:57:17;;;;;;;16.02;10.68;;;15.30;99.90;;;;;;5073022;28;20069;-59
2021/06/24 00:59:43;;;;;;;17.48;11.30;;;15.40;99.90;;;;;;5055517;28;20068;-59
2021/06/24 01:02:09;;;;;;;15.95;10.00;;;15.30;99.90;;;;;;5073468;28;20070;-59
2021/06/24 01:04:36;;;;;;;14.38;10.60;;;15.30;99.90;;;;;;5073748;28;20029;-60
2021/06/24 01:07:03;;;;;;;14.32;10.90;;;15.30;99.90;;;;;;5073306;28;20103;-59
2021/06/24 01:09:29;;;;;;;17.38;11.50;;;15.30;99.90;;;;;;5073205;28;20027;-61
2021/06/24 01:11:55;;;;;;;21.00;11.10;;;15.30;99.90;;;;;;5055204;28;20029;-61
2021/06/24 01:14:24;;;;;;;14.77;11.75;;;15.30;99.90;;;;;;5073272;28;20027;-61
2021/06/24 01:16:51;;;;;;;20.95;12.02;;;15.30;99.90;;;;;;5073121;28;20025;-60
2021/06/24 01:19:18;;;;;;;19.65;12.05;;;15.30;99.90;;;;;;5073371;28;20027;-61
2021/06/24 01:21:44;;;;;;;18.08;12.23;;;15.30;99.90;;;;;;5073198;28;20026;-60
2021/06/24 01:24:10;;;;;;;19.58;12.50;;;15.20;99.90;;;;;;5073157;28;20035;-61
2021/06/24 01:26:38;;;;;;;21.23;12.05;;;15.30;99.90;;;;;;5054853;28;20381;-60
2021/06/24 01:29:04;;;;;;;18.45;12.77;;;15.30;99.90;;;;;;5072862;28;20024;-60
2021/06/24 01:31:30;;;;;;;16.05;12.20;;;15.30;99.90;;;;;;5073008;28;20024;-60
2021/06/24 01:33:56;;;;;;;18.98;12.25;;;15.30;99.90;;;;;;5073016;28;20504;-60
2021/06/24 01:36:21;;;;;;;17.42;12.32;;;15.20;99.90;;;;;;5054577;28;20060;-60
2021/06/24 01:38:47;;;;;;;20.88;12.60;;;15.20;99.90;;;;;;5072805;28;20064;-60
2021/06/24 01:41:14;;;;;;;19.40;12.20;;;15.20;99.90;;;;;;5072682;28;20048;-60
2021/06/24 01:43:41;;;;;;;18.65;12.45;;;15.20;99.90;;;;;;5072721;28;20024;-60
2021/06/24 01:46:07;;;;;;;17.00;12.63;;;15.20;99.90;;;;;;5072557;28;20131;-60
2021/06/24 01:48:32;;;;;;;19.08;12.50;;;15.10;99.90;;;;;;5072507;28;20107;-60
2021/06/24 01:51:01;;;;;;;14.23;12.73;;;15.10;99.90;;;;;;5072712;28;20067;-60
2021/06/24 01:53:27;;;;;;;21.38;13.73;;;15.10;99.90;;;;;;5072742;28;20012;-59
2021/06/24 01:55:53;;;;;;;23.48;14.10;;;15.00;99.90;;;;;;5072430;28;20491;-59
2021/06/24 01:58:24;;;;;;;19.73;14.43;;;15.00;99.90;;;;;;5072377;28;20020;-59
2021/06/24 02:00:52;;;;;;;19.88;14.20;;;15.00;99.90;;;;;;5072702;28;20013;-60
2021/06/24 02:03:19;;;;;;;26.55;14.63;;;15.00;99.90;;;;;;5072588;28;20477;-60
2021/06/24 02:05:48;;;;;;;21.40;15.38;;;15.00;99.90;;;;;;5072497;28;20497;-60
2021/06/24 02:08:20;;;;;;;23.38;14.52;;;15.00;99.90;;;;;;5053967;28;20628;-60
2021/06/24 02:10:46;;;;;;;22.70;15.82;;;14.90;99.90;;;;;;5054190;28;20436;-60
2021/06/24 02:13:13;;;;;;;23.40;15.93;;;14.80;99.90;;;;;;5072219;28;20020;-60
2021/06/24 02:15:39;;;;;;;20.58;15.48;;;14.80;99.90;;;;;;5071922;28;20103;-60
2021/06/24 02:18:05;;;;;;;24.13;16.52;;;14.70;99.90;;;;;;5071830;28;20031;-60
2021/06/24 02:20:31;;;;;;;21.40;16.15;;;14.70;99.90;;;;;;5071697;28;20020;-60
2021/06/24 02:22:57;;;;;;;17.73;15.82;;;14.60;99.90;;;;;;5071804;28;20099;-60
2021/06/24 02:25:23;;;;;;;20.98;15.93;;;14.60;99.90;;;;;;5072476;28;20100;-60
2021/06/24 02:27:48;;;;;;;24.08;16.75;;;14.50;99.90;;;;;;5072018;28;20017;-60
2021/06/24 02:30:16;;;;;;;21.83;16.33;;;14.50;99.90;;;;;;5053624;28;20032;-60
2021/06/24 02:32:42;;;;;;;23.17;17.67;;;14.50;99.90;;;;;;5071680;28;20029;-60
2021/06/24 02:35:11;;;;;;;23.65;17.50;;;14.50;99.90;;;;;;5071651;28;20047;-60
2021/06/24 02:37:37;;;;;;;24.90;17.48;;;14.50;99.90;;;;;;5071328;28;20081;-60
2021/06/24 02:40:05;;;;;;;24.80;17.67;;;14.50;99.90;;;;;;5071554;28;20477;-60
2021/06/24 02:42:31;;;;;;;24.58;17.17;;;14.50;99.90;;;;;;5071392;28;20024;-60
2021/06/24 02:44:56;;;;;;;23.05;17.52;;;14.50;99.90;;;;;;5053609;28;20020;-60
2021/06/24 02:47:22;;;;;;;25.42;17.88;;;14.40;99.90;;;;;;5071331;28;20539;-60
2021/06/24 02:49:48;;;;;;;24.23;17.48;;;14.40;99.90;;;;;;5053257;28;20028;-59
2021/06/24 02:52:14;;;;;;;26.00;18.55;;;14.40;99.90;;;;;;5071445;28;20028;-60
2021/06/24 02:54:39;;;;;;;21.25;18.00;;;14.40;99.90;;;;;;5071358;28;20033;-59
2021/06/24 02:57:05;;;;;;;24.27;17.75;;;14.40;99.90;;;;;;5071170;28;20026;-59
2021/06/24 02:59:31;;;;;;;28.42;18.00;;;14.40;99.90;;;;;;5053459;28;20031;-59
2021/06/24 03:01:56;;;;;;;25.08;18.40;;;14.40;99.90;;;;;;5071208;28;20032;-59
2021/06/24 03:04:22;;;;;;;21.60;17.70;;;14.50;99.90;;;;;;5071331;28;20028;-60
2021/06/24 03:06:53;;;;;;;24.67;17.50;;;14.50;99.90;;;;;;5052936;28;20493;-59
2021/06/24 03:09:19;;;;;;;22.13;18.00;;;14.50;99.90;;;;;;5070941;28;20036;-59
2021/06/24 03:11:46;;;;;;;23.98;17.67;;;14.60;99.90;;;;;;5071188;28;20020;-60
2021/06/24 03:14:12;;;;;;;25.67;18.45;;;14.60;99.90;;;;;;5071044;28;20035;-60
2021/06/24 03:16:38;;;;;;;26.90;19.10;;;14.70;99.90;;;;;;5053086;28;20025;-60
2021/06/24 03:19:04;;;;;;;23.50;18.83;;;14.80;99.90;;;;;;5070847;28;20108;-60
2021/06/24 03:21:30;;;;;;;27.33;18.25;;;14.80;99.90;;;;;;5070176;28;20027;-59
2021/06/24 03:23:56;;;;;;;27.65;18.10;;;14.80;99.90;;;;;;5070969;28;20028;-59
2021/06/24 03:26:21;;;;;;;21.85;17.98;;;14.80;99.90;;;;;;5070845;28;20036;-60
2021/06/24 03:28:47;;;;;;;22.25;18.48;;;14.90;99.90;;;;;;5070679;28;20355;-60
2021/06/24 03:31:13;;;;;;;26.98;18.63;;;15.00;99.90;;;;;;5071057;28;20032;-60
2021/06/24 03:33:39;;;;;;;22.60;17.98;;;15.10;99.90;;;;;;5070836;28;20025;-61
2021/06/24 03:36:05;;;;;;;22.42;17.70;;;15.00;99.90;;;;;;5070679;28;20387;-60
2021/06/24 03:38:31;;;;;;;20.98;17.08;;;15.00;99.90;;;;;;5070599;28;20052;-60
2021/06/24 03:40:57;;;;;;;22.30;17.42;;;15.00;99.90;;;;;;5070761;28;20036;-59
2021/06/24 03:43:22;;;;;;;20.90;17.48;;;15.00;99.90;;;;;;5052773;28;20119;-60
2021/06/24 03:45:48;;;;;;;20.50;17.38;;;14.90;99.90;;;;;;5070627;28;20079;-59
2021/06/24 03:48:14;;;;;;;24.10;17.83;;;15.00;99.90;;;;;;5070475;28;20031;-60
2021/06/24 03:50:40;;;;;;;24.45;17.20;;;15.10;99.90;;;;;;5070678;28;20043;-59
2021/06/24 03:53:06;;;;;;;27.92;17.42;;;15.30;99.90;;;;;;5070698;28;20024;-59
2021/06/24 03:55:36;;;;;;;21.30;16.23;;;15.20;99.90;;;;;;5070818;28;20028;-60
2021/06/24 03:58:03;;;;;;;18.98;16.15;;;15.20;99.90;;;;;;5070781;28;20469;-60
2021/06/24 04:00:28;;;;;;;23.17;15.60;;;15.10;99.90;;;;;;5070543;28;20032;-60
2021/06/24 04:02:54;;;;;;;21.30;15.30;;;15.10;99.90;;;;;;5052403;28;20031;-60
2021/06/24 04:05:20;;;;;;;20.45;15.80;;;15.10;99.90;;;;;;5070403;28;20047;-59
2021/06/24 04:07:45;;;;;;;19.65;15.00;;;15.00;99.90;;;;;;5070334;28;20035;-59
2021/06/24 04:10:12;;;;;;;22.67;16.10;;;15.00;99.90;;;;;;5070758;28;20035;-59
2021/06/24 04:12:38;;;;;;;20.65;15.02;;;15.10;99.90;;;;;;5070436;28;20103;-59
2021/06/24 04:15:05;;;;;;;18.88;14.73;;;15.10;99.90;;;;;;5070567;28;20023;-60
2021/06/24 04:17:31;;;;;;;19.85;15.23;;;15.10;99.90;;;;;;5070389;28;20492;-60
2021/06/24 04:19:56;;;;;;;22.52;15.05;;;15.10;99.90;;;;;;5052195;28;20056;-60
2021/06/24 04:22:22;;;;;;;22.08;15.18;;;15.10;99.90;;;;;;5070412;28;20068;-60
2021/06/24 04:24:48;;;;;;;18.00;14.30;;;15.00;99.90;;;;;;5070261;28;20032;-60
2021/06/24 04:27:13;;;;;;;20.83;14.80;;;15.00;99.90;;;;;;5052343;28;20029;-60
2021/06/24 04:29:39;;;;;;;22.20;15.25;;;15.00;99.90;;;;;;5070318;28;20103;-59
2021/06/24 04:32:05;;;;;;;21.77;15.45;;;15.10;99.90;;;;;;5053254;28;20469;-60
2021/06/24 04:34:30;;;;;;;16.15;14.55;;;15.20;99.90;;;;;;5073961;28;20032;-60
2021/06/24 04:36:56;;;;;;;17.05;13.65;;;15.30;99.90;;;;;;5073677;28;20052;-60
2021/06/24 04:39:21;;;;;;;18.90;13.98;;;15.30;99.90;;;;;;5073723;28;20027;-60
2021/06/24 04:41:47;;;;;;;17.17;14.30;;;15.20;99.90;;;;;;5055895;28;20130;-61
2021/06/24 04:44:13;;;;;;;22.33;13.98;;;15.30;99.90;;;;;;5074100;28;20044;-60
2021/06/24 04:46:38;;;;;;;23.35;14.13;;;15.30;99.90;;;;;;5073787;28;20122;-60
2021/06/24 04:49:04;;;;;;;20.38;14.68;;;15.50;99.90;;;;;;5073398;28;20036;-60
2021/06/24 04:51:30;;;;;;;18.02;14.02;;;15.50;99.90;;;;;;5073488;28;20427;-60
2021/06/24 04:53:56;;;;;;;19.70;13.68;;;15.40;99.90;;;;;;5073940;28;20020;-60
2021/06/24 04:56:21;;;;;;;16.77;13.02;;;15.50;99.90;;;;;;5073855;28;20070;-60
2021/06/24 04:58:47;;;;;;;17.05;13.45;;;15.40;99.90;;;;;;5073451;28;20024;-60
2021/06/24 05:01:12;;;;;;;18.27;13.57;;;15.30;99.90;;;;;;5073315;28;20035;-60
2021/06/24 05:03:38;;;;;;;17.48;13.73;;;15.40;99.90;;;;;;5073624;28;20424;-60
2021/06/24 05:06:07;;;;;;;16.60;12.77;;;15.40;99.90;;;;;;5073527;28;20078;-60
2021/06/24 05:08:34;;;;;;;23.83;12.40;;;15.40;99.90;;;;;;5055522;28;20547;-60
2021/06/24 05:10:59;;;;;;;16.55;12.13;;;15.40;99.90;;;;;;5055345;28;20013;-60
2021/06/24 05:13:25;;;;;;;16.02;12.95;;;15.30;99.90;;;;;;5073290;28;20069;-60
2021/06/24 05:15:51;;;;;;;17.23;13.05;;;15.30;99.90;;;;;;5054974;28;20024;-60
2021/06/24 05:18:17;;;;;;;20.05;13.77;;;15.30;99.90;;;;;;5073591;28;20017;-60
2021/06/24 05:20:44;;;;;;;20.92;13.63;;;15.30;99.90;;;;;;5072963;28;20025;-60
2021/06/24 05:23:12;;;;;;;20.92;14.23;;;15.40;99.90;;;;;;5073347;28;20604;-61
2021/06/24 05:25:39;;;;;;;21.77;13.50;;;15.50;99.90;;;;;;5072969;28;20111;-60
2021/06/24 05:28:05;;;;;;;19.60;13.10;;;15.70;99.90;;;;;;5072964;28;20035;-60
2021/06/24 05:30:31;;;;;;;17.27;13.13;;;15.70;99.90;;;;;;5056723;28;20112;-61
2021/06/24 05:32:57;;;;;;;15.18;12.63;;;15.60;99.90;;;;;;5052882;28;20059;-60
2021/06/24 05:35:22;;;;;;;19.70;13.02;;;15.60;99.90;;;;;;5051456;28;20421;-60
2021/06/24 05:37:48;;;;;;;14.50;12.65;;;15.60;99.90;;;;;;5052448;28;20045;-60
2021/06/24 05:40:14;;;;;;;19.15;12.90;;;15.60;99.90;;;;;;5052874;28;20052;-60
2021/06/24 05:42:40;;;;;;;20.05;13.85;;;15.50;99.90;;;;;;5052789;28;20035;-60
2021/06/24 05:45:06;;;;;;;19.23;13.50;;;15.50;99.90;;;;;;5052401;28;20029;-60
2021/06/24 05:47:32;;;;;;;16.48;14.00;;;15.60;99.90;;;;;;5052512;28;20089;-60
2021/06/24 05:49:59;;;;;;;19.77;13.43;;;15.70;99.90;;;;;;5051573;28;20442;-60
2021/06/24 05:52:25;;;;;;;19.67;12.57;;;15.70;99.90;;;;;;5050340;28;20025;-61
2021/06/24 05:54:50;;;;;;;23.33;14.30;;;15.60;99.90;;;;;;5055430;28;20059;-61
2021/06/24 05:57:16;;;;;;;18.98;13.18;;;15.50;99.90;;;;;;5037164;28;20056;-60
2021/06/24 05:59:42;;;;;;;17.35;13.55;;;15.60;99.90;;;;;;5055823;28;20320;-61
2021/06/24 06:02:07;;;;;;;17.73;13.13;;;15.80;99.90;;;;;;5055867;28;20021;-60
2021/06/24 06:04:33;;;;;;;20.80;13.60;;;15.70;99.90;;;;;;5069257;28;20025;-60
2021/06/24 06:06:59;;;;;;;18.63;14.10;;;15.80;99.90;;;;;;5059534;28;20412;-60
2021/06/24 06:09:24;;;;;;;20.38;14.27;;;15.90;99.90;;;;;;5053254;28;20032;-61
2021/06/24 06:11:50;;;;;;;22.95;13.50;;;15.90;99.90;;;;;;5051676;28;20025;-60
2021/06/24 06:14:16;;;;;;;21.27;13.88;;;15.90;99.90;;;;;;5060059;28;20073;-60
2021/06/24 06:16:44;;;;;;;17.70;13.95;;;15.90;99.90;;;;;;5062019;28;20021;-60
2021/06/24 06:19:10;;;;;;;19.83;14.23;;;16.00;99.90;;;;;;5058933;28;20032;-61
2021/06/24 06:21:36;;;;;;;22.05;14.98;;;16.20;99.90;;;;;;5062576;28;20017;-60
2021/06/24 06:24:02;;;;;;;23.17;14.05;;;16.20;99.90;;;;;;5067704;28;20366;-60
2021/06/24 06:26:28;;;;;;;21.40;13.30;;;16.10;99.90;;;;;;5067565;28;20374;-60
2021/06/24 06:28:54;;;;;;;24.55;13.93;;;16.30;99.90;;;;;;5050056;28;20055;-60
2021/06/24 06:31:20;;;;;;;25.77;13.65;;;16.50;99.90;;;;;;5055985;28;20025;-60
2021/06/24 06:33:46;;;;;;;18.92;13.40;;;16.60;99.90;;;;;;5061839;28;20366;-60
2021/06/24 06:36:12;;;;;;;18.75;13.45;;;16.50;99.90;;;;;;5057552;28;20023;-60
2021/06/24 06:38:38;;;;;;;18.98;13.15;;;16.40;99.90;;;;;;5057269;28;20625;-61
2021/06/24 06:41:03;;;;;;;18.67;13.38;;;16.40;99.90;;;;;;5043783;28;20035;-61
2021/06/24 06:43:29;;;;;;;18.73;12.90;;;16.40;99.90;;;;;;5061499;28;20116;-61
2021/06/24 06:45:55;;;;;;;20.40;12.68;;;16.40;99.90;;;;;;5056691;28;20024;-60
2021/06/24 06:48:21;;;;;;;22.20;13.32;;;16.40;99.90;;;;;;5056669;28;20028;-60
2021/06/24 06:50:48;;;;;;;16.42;13.25;;;16.40;99.90;;;;;;5063448;28;20082;-59
2021/06/24 06:53:13;;;;;;;18.65;13.35;;;16.40;99.90;;;;;;5039334;28;20052;-60
2021/06/24 06:55:39;;;;;;;17.90;12.63;;;16.60;99.90;;;;;;5061263;28;20094;-61
2021/06/24 06:58:05;;;;;;;15.80;12.38;;;16.80;99.90;;;;;;5062140;28;20025;-61
2021/06/24 07:00:33;;;;;;;19.05;12.30;;;16.70;99.90;;;;;;5054331;28;20032;-61
2021/06/24 07:03:00;;;;;;;14.15;11.93;;;16.70;99.90;;;;;;5049187;28;20473;-60
2021/06/24 07:05:26;;;;;;;13.32;11.85;;;16.90;99.90;;;;;;5048541;28;20477;-61
2021/06/24 07:07:52;;;;;;;19.13;12.10;;;16.90;99.90;;;;;;5057226;28;20104;-59
2021/06/24 07:10:18;;;;;;;15.75;12.20;;;17.10;99.90;;;;;;5048083;28;20139;-61
2021/06/24 07:12:44;;;;;;;15.82;11.45;;;17.20;99.90;;;;;;5030594;28;20032;-60
2021/06/24 07:15:10;;;;;;;16.75;10.15;;;18.00;99.90;;;;;;5057751;28;20020;-60
2021/06/24 07:17:36;;;;;;;14.15;10.57;;;18.60;99.90;;;;;;5055742;28;20513;-60
2021/06/24 07:20:04;;;;;;;18.10;10.82;;;18.60;99.90;;;;;;5037760;28;20288;-61
2021/06/24 07:22:30;;;;;;;18.95;10.25;;;18.40;99.90;;;;;;5057904;28;20032;-60
2021/06/24 07:24:55;;;;;;;18.98;10.85;;;18.50;99.90;;;;;;5053022;28;20587;-60
2021/06/24 07:27:21;;;;;;;16.90;10.88;;;18.30;99.90;;;;;;5047419;28;20108;-60
2021/06/24 07:29:47;;;;;;;16.90;10.98;;;18.30;99.90;;;;;;5056613;28;20028;-61
2021/06/24 07:32:12;;;;;;;15.40;10.50;;;18.40;99.90;;;;;;5050628;28;20386;-61
2021/06/24 07:34:38;;;;;;;18.10;10.88;;;18.40;99.90;;;;;;5046107;28;20028;-60
2021/06/24 07:37:04;;;;;;;17.95;10.15;;;18.40;99.90;;;;;;5061956;28;20128;-61
2021/06/24 07:39:30;;;;;;;15.77;9.75;;;18.40;99.90;;;;;;5043098;28;20527;-61
2021/06/24 07:41:56;;;;;;;13.43;10.00;;;18.50;99.90;;;;;;5065805;28;20056;-61
2021/06/24 07:44:21;;;;;;;12.80;9.27;;;18.80;99.90;;;;;;5067441;28;20064;-61
2021/06/24 07:46:47;;;;;;;15.38;10.43;;;19.00;99.90;;;;;;5064516;28;20130;-61
2021/06/24 07:49:13;;;;;;;13.82;9.85;;;18.80;99.90;;;;;;5067058;28;20028;-61
2021/06/24 07:51:38;;;;;;;15.70;10.73;;;18.70;99.90;;;;;;5065913;28;20420;-60
2021/06/24 07:54:04;;;;;;;16.35;10.50;;;18.70;99.90;;;;;;5057540;28;20025;-60
2021/06/24 07:56:30;;;;;;;12.07;10.85;;;18.80;99.90;;;;;;5065783;28;20392;-61
2021/06/24 07:58:55;;;;;;;14.45;10.85;;;18.90;99.90;;;;;;5060926;28;20041;-60
2021/06/24 08:01:21;;;;;;;14.38;11.40;;;19.00;99.90;;;;;;5059154;28;20037;-60
2021/06/24 08:03:47;;;;;;;13.32;10.25;;;18.90;99.90;;;;;;5067450;28;20040;-61
2021/06/24 08:06:12;;;;;;;14.13;10.90;;;19.00;99.90;;;;;;5067947;28;20032;-61
2021/06/24 08:08:38;;;;;;;17.08;10.23;;;19.20;99.90;;;;;;5053680;28;20140;-61
2021/06/24 08:11:04;;;;;;;15.60;10.38;;;19.40;99.90;;;;;;5070884;28;20070;-61
2021/06/24 08:13:30;;;;;;;16.35;10.48;;;19.50;99.90;;;;;;5070050;28;20517;-60
2021/06/24 08:15:57;;;;;;;15.15;10.05;;;19.70;99.90;;;;;;5070649;28;20048;-61
2021/06/24 08:18:23;;;;;;;16.58;10.50;;;19.80;99.90;;;;;;5063422;28;20029;-61
2021/06/24 08:20:50;;;;;;;19.83;9.90;;;19.70;99.90;;;;;;5057737;28;20036;-61
2021/06/24 08:23:16;;;;;;;16.85;10.15;;;19.50;99.90;;;;;;5069765;28;20017;-61
2021/06/24 08:25:43;;;;;;;16.63;9.80;;;19.50;99.90;;;;;;5066736;28;20072;-61
2021/06/24 08:28:09;;;;;;;16.02;10.52;;;19.70;99.90;;;;;;5045890;28;20108;-60
2021/06/24 08:30:37;;;;;;;14.25;10.25;;;19.70;99.90;;;;;;5062791;28;20111;-60
2021/06/24 08:33:03;;;;;;;14.10;9.73;;;19.60;99.90;;;;;;5042747;28;20013;-60
2021/06/24 08:35:29;;;;;;;12.40;9.13;;;19.60;99.90;;;;;;5059158;28;20416;-60
2021/06/24 08:37:55;;;;;;;12.07;10.10;;;19.50;99.90;;;;;;5050532;28;20047;-61
2021/06/24 08:40:22;;;;;;;14.52;10.00;;;19.40;99.90;;;;;;5066377;28;20083;-61
2021/06/24 08:42:48;;;;;;;14.80;9.50;;;19.50;99.90;;;;;;5062879;28;20043;-61
2021/06/24 08:45:14;;;;;;;15.00;9.68;;;19.30;99.90;;;;;;5058754;28;20024;-61
2021/06/24 08:47:46;;;;;;;18.08;10.13;;;19.10;99.90;;;;;;5067022;28;20433;-60
2021/06/24 08:50:13;;;;;;;13.20;9.45;;;19.20;99.90;;;;;;5066935;28;20082;-62
2021/06/24 08:52:39;;;;;;;15.57;9.10;;;19.30;99.90;;;;;;5054088;28;20663;-59
2021/06/24 08:55:05;;;;;;;15.02;9.60;;;19.30;99.90;;;;;;5070554;28;20017;-60
2021/06/24 08:57:33;;;;;;;17.42;9.05;;;19.50;99.90;;;;;;5067554;28;20036;-61
2021/06/24 09:00:00;;;;;;;13.95;9.57;;;19.90;99.90;;;;;;5061943;28;20389;-61
2021/06/24 09:02:50;;;;;;;13.88;9.02;;;19.90;99.90;;;;;;5048415;28;20269;-60
2021/06/24 09:05:16;;;;;;;11.18;8.68;;;19.50;99.90;;;;;;5068488;28;20024;-61
2021/06/24 09:07:52;;;;;;;12.30;8.68;;;19.50;99.90;;;;;;5073113;28;20600;-61
2021/06/24 09:10:20;;;;;;;10.80;9.00;;;19.50;99.90;;;;;;5063371;28;20413;-60
2021/06/24 09:12:57;;;;;;;16.00;9.40;;;19.30;99.90;;;;;;5066269;28;20025;-61
2021/06/24 09:15:24;;;;;;;12.73;9.15;;;19.20;99.90;;;;;;5063957;28;20483;-60
2021/06/24 09:17:50;;;;;;;16.55;10.00;;;19.20;99.90;;;;;;5066498;28;20029;-60
2021/06/24 09:20:18;;;;;;;12.25;8.65;;;19.30;99.90;;;;;;5050849;28;20500;-61
2021/06/24 09:23:07;;;;;;;15.95;8.95;;;19.40;99.90;;;;;;5069821;28;20113;-60
2021/06/24 09:25:33;;;;;;;12.48;8.25;;;19.70;99.90;;;;;;5063304;28;20025;-61
2021/06/24 09:27:58;;;;;;;14.13;8.48;;;20.00;99.90;;;;;;5049528;28;20434;-61
2021/06/24 09:30:35;;;;;;;10.48;7.60;;;19.90;99.90;;;;;;5045438;28;20068;-60
2021/06/24 09:33:10;;;;;;;9.35;7.28;;;20.10;99.90;;;;;;5058656;28;20044;-61
2021/06/24 09:35:36;;;;;;;12.55;7.72;;;20.10;99.90;;;;;;5038767;28;20566;-61
2021/06/24 09:38:14;;;;;;;10.73;8.52;;;20.30;99.90;;;;;;5048280;28;20055;-60
2021/06/24 09:40:54;;;;;;;14.75;8.70;;;20.40;99.90;;;;;;5059645;28;20021;-60
2021/06/24 09:43:23;;;;;;;14.05;8.40;;;20.90;99.90;;;;;;5065497;28;20028;-60
2021/06/24 09:46:06;;;;;;;15.00;8.68;;;20.90;99.90;;;;;;5066744;28;20040;-64
2021/06/24 09:48:33;;;;;;;14.30;8.60;;;21.10;99.90;;;;;;5060614;28;20039;-61
2021/06/24 09:51:06;;;;;;;11.07;7.85;;;21.50;99.90;;;;;;5063628;28;20029;-60
2021/06/24 09:53:32;;;;;;;18.80;8.50;;;21.40;99.90;;;;;;5067625;28;20067;-60
2021/06/24 09:55:58;;;;;;;11.88;8.02;;;21.30;99.90;;;;;;5060859;28;20430;-61
2021/06/24 09:58:23;;;;;;;13.23;8.32;;;21.20;99.90;;;;;;5067879;28;20153;-60
2021/06/24 10:00:51;;;;;;;12.52;7.80;;;21.30;99.90;;;;;;5044753;28;20056;-61
2021/06/24 10:03:17;;;;;;;11.95;8.77;;;21.60;99.90;;;;;;5062494;28;20038;-61
2021/06/24 10:05:44;;;;;;;13.75;7.80;;;21.40;99.90;;;;;;5051104;28;20604;-61
2021/06/24 10:08:11;;;;;;;11.75;8.32;;;21.20;99.90;;;;;;5062265;28;20353;-61
2021/06/24 10:10:39;;;;;;;12.02;8.32;;;21.00;99.90;;;;;;5060181;28;20111;-59
2021/06/24 10:13:05;;;;;;;10.73;8.23;;;20.80;99.90;;;;;;5047657;28;20048;-61
2021/06/24 10:15:32;;;;;;;12.70;7.57;;;21.00;99.90;;;;;;5066847;28;20028;-61
2021/06/24 10:17:58;;;;;;;10.43;8.68;;;20.80;99.90;;;;;;5066701;28;20450;-60
2021/06/24 10:20:28;;;;;;;10.00;7.55;;;20.40;99.90;;;;;;5057217;28;20540;-61
2021/06/24 10:23:08;;;;;;;17.55;8.55;;;20.30;99.90;;;;;;5062988;28;20035;-61
2021/06/24 10:25:35;;;;;;;23.80;8.20;;;20.10;99.90;;;;;;5035562;28;20025;-60
2021/06/24 10:28:01;;;;;;;16.42;8.98;;;20.10;99.90;;;;;;5060167;28;20035;-63
2021/06/24 10:30:27;;;;;;;15.13;9.50;;;20.20;99.90;;;;;;5059758;28;20371;-60
2021/06/24 10:33:02;;;;;;;13.35;9.10;;;20.20;99.90;;;;;;5052960;28;20033;-60
2021/06/24 10:35:32;;;;;;;18.73;9.23;;;20.00;99.90;;;;;;5062527;28;20389;-61
2021/06/24 10:37:59;;;;;;;15.40;7.75;;;20.10;99.90;;;;;;5063116;28;20037;-61
2021/06/24 10:40:36;;;;;;;14.13;9.10;;;20.20;99.90;;;;;;5060633;28;20102;-61
2021/06/24 10:43:13;;;;;;;23.45;9.95;;;19.80;99.90;;;;;;5067661;28;20436;-60
2021/06/24 10:45:42;;;;;;;14.13;8.98;;;19.80;99.90;;;;;;5056812;28;20513;-61
2021/06/24 10:48:34;;;;;;;17.02;9.68;;;19.70;99.90;;;;;;5055626;28;20031;-60
2021/06/24 10:51:07;;;;;;;18.00;9.33;;;19.90;99.90;;;;;;5051335;28;20041;-61
2021/06/24 10:53:33;;;;;;;14.73;9.57;;;20.10;99.90;;;;;;5023038;28;20276;-60
2021/06/24 10:56:19;;;;;;;18.52;9.52;;;20.20;99.90;;;;;;5056541;28;20072;-59
2021/06/24 10:58:45;;;;;;;15.10;9.85;;;20.30;99.90;;;;;;5038275;28;20489;-60
2021/06/24 11:01:11;;;;;;;25.50;10.90;;;20.70;99.90;;;;;;5062039;28;20028;-61
2021/06/24 11:03:40;;;;;;;20.08;9.90;;;21.20;99.90;;;;;;5048413;28;20035;-61
2021/06/24 11:06:12;;;;;;;20.30;10.60;;;21.10;99.90;;;;;;5063157;28;20103;-61
2021/06/24 11:08:41;;;;;;;14.27;9.67;;;21.10;99.90;;;;;;5060037;28;20029;-60
2021/06/24 11:11:12;;;;;;;14.48;10.63;;;21.20;99.90;;;;;;5054287;28;20037;-61
2021/06/24 11:13:41;;;;;;;14.63;10.85;;;21.40;99.90;;;;;;5056712;28;20031;-60
2021/06/24 11:16:10;;;;;;;13.13;10.38;;;21.40;99.90;;;;;;5048583;28;20051;-61
2021/06/24 11:18:38;;;;;;;14.75;10.50;;;21.00;99.90;;;;;;5064748;28;20021;-61
2021/06/24 11:21:11;;;;;;;18.30;11.10;;;20.50;99.90;;;;;;5041358;28;20024;-60
2021/06/24 11:23:58;;;;;;;15.55;11.05;;;20.40;99.90;;;;;;5047260;28;20037;-61
2021/06/24 11:26:24;;;;;;;14.90;10.52;;;20.50;99.90;;;;;;5047944;28;20048;-61
2021/06/24 11:29:11;;;;;;;14.95;11.32;;;20.80;99.90;;;;;;5066522;28;20121;-61
2021/06/24 11:32:05;;;;;;;13.75;10.18;;;20.90;99.90;;;;;;5053618;28;20016;-61
2021/06/24 11:34:35;;;;;;;14.02;9.57;;;21.10;99.90;;;;;;5060288;28;20040;-61
2021/06/24 11:37:03;;;;;;;12.25;9.90;;;21.30;99.90;;;;;;5054193;28;20032;-61
2021/06/24 11:39:36;;;;;;;12.57;9.68;;;21.30;99.90;;;;;;5040263;28;20539;-62
2021/06/24 11:42:18;;;;;;;13.93;10.05;;;20.90;99.90;;;;;;5059485;28;20025;-60
2021/06/24 11:44:48;;;;;;;16.42;10.32;;;20.50;99.90;;;;;;5049157;28;20025;-60
2021/06/24 11:47:22;;;;;;;12.40;9.70;;;20.30;99.90;;;;;;5063153;28;20064;-61
2021/06/24 12:01:16;;;;;;;30.90;11.32;;;20.20;99.90;;;;;;5053784;28;20654;-61
2021/06/24 12:03:47;;;;;;;21.48;10.80;;;20.20;99.90;;;;;;5061355;28;20029;-61
2021/06/24 12:06:12;;;;;;;22.63;10.85;;;20.30;99.90;;;;;;5062377;28;20020;-61
2021/06/24 12:08:38;;;;;;;22.45;11.20;;;20.40;99.90;;;;;;5060180;28;20032;-61
2021/06/24 12:11:14;;;;;;;18.55;10.95;;;20.60;99.90;;;;;;5061240;28;20036;-62
2021/06/24 12:13:43;;;;;;;11.98;9.95;;;20.50;99.90;;;;;;5060349;28;20028;-61
2021/06/24 12:16:12;;;;;;;16.27;10.15;;;20.10;99.90;;;;;;5040363;28;20334;-61
2021/06/24 12:18:44;;;;;;;15.80;10.68;;;19.90;99.90;;;;;;5061996;28;20027;-61
2021/06/24 12:21:12;;;;;;;15.40;9.63;;;20.00;99.90;;;;;;5055258;28;20033;-61
2021/06/24 12:23:56;;;;;;;16.02;11.23;;;20.00;99.90;;;;;;5038182;28;20465;-61
2021/06/24 12:26:22;;;;;;;15.20;10.18;;;20.40;99.90;;;;;;5053102;28;20347;-61
2021/06/24 12:28:47;;;;;;;16.15;10.82;;;20.40;99.90;;;;;;5045051;28;20565;-61
2021/06/24 12:31:21;;;;;;;12.98;10.18;;;20.80;99.90;;;;;;5061221;28;20025;-61
2021/06/24 12:33:49;;;;;;;12.95;9.68;;;21.10;99.90;;;;;;5059277;28;20100;-61
2021/06/24 12:36:28;;;;;;;13.13;8.80;;;21.30;99.90;;;;;;5047070;28;20039;-61
2021/06/24 12:38:54;;;;;;;10.75;8.57;;;21.80;99.90;;;;;;5061962;28;20417;-61
2021/06/24 12:41:19;;;;;;;13.85;9.10;;;22.60;99.90;;;;;;5054091;28;20036;-61
2021/06/24 12:43:47;;;;;;;15.68;10.40;;;22.50;99.90;;;;;;5056765;28;20052;-61